Time;durP1;ratioP1;P1;durP2;ratioP2;P2;SDS_P1;SDS_P2;PMS_P1;PMS_P2;Temp;Humidity;BMP_temperature;BMP_pressure;BME280_temperature;BME280_humidity;BME280_pressure;Samples;Min_cycle;Max_cycle;Signal;HPM_P1;HPM_P2
2023/09/27 00:01:37;;;;;;;3.00;1.83;;;;;;;;;;5286154;28;20628;-83
2023/09/27 00:04:08;;;;;;;3.33;2.20;;;;;;;;;;5285583;28;20464;-83
2023/09/27 00:06:41;;;;;;;3.58;2.10;;;;;;;;;;5286093;28;20104;-83
2023/09/27 00:09:12;;;;;;;5.78;2.45;;;;;;;;;;5286513;28;20073;-83
2023/09/27 00:11:43;;;;;;;3.97;2.05;;;;;;;;;;5285405;28;20115;-83
2023/09/27 00:14:14;;;;;;;2.50;1.92;;;;;;;;;;5285757;28;20033;-83
2023/09/27 00:16:45;;;;;;;3.83;1.77;;;;;;;;;;5284566;28;20016;-83
2023/09/27 00:19:17;;;;;;;3.67;2.00;;;;;;;;;;5285705;28;20099;-83
2023/09/27 00:21:48;;;;;;;2.73;2.17;;;;;;;;;;5285318;28;20633;-83
2023/09/27 00:24:19;;;;;;;4.55;2.13;;;;;;;;;;5285037;28;20282;-83
2023/09/27 00:26:50;;;;;;;4.65;2.28;;;;;;;;;;5285373;28;20455;-83
2023/09/27 00:29:21;;;;;;;3.22;2.30;;;;;;;;;;5286659;28;20450;-83
2023/09/27 00:31:53;;;;;;;4.43;2.42;;;;;;;;;;5284737;28;20139;-83
2023/09/27 00:34:24;;;;;;;3.05;2.50;;;;;;;;;;5285884;28;20048;-83
2023/09/27 00:36:55;;;;;;;3.70;2.03;;;;;;;;;;5285549;28;20024;-83
2023/09/27 00:39:26;;;;;;;3.97;2.05;;;;;;;;;;5284878;28;20024;-83
2023/09/27 00:41:57;;;;;;;4.03;2.40;;;;;;;;;;5285848;28;20091;-83
2023/09/27 00:44:29;;;;;;;3.87;1.90;;;;;;;;;;5285453;28;20017;-83
2023/09/27 00:47:01;;;;;;;2.70;1.83;;;;;;;;;;5284671;28;20273;-83
2023/09/27 00:49:32;;;;;;;3.17;2.15;;;;;;;;;;5285328;28;20107;-83
2023/09/27 00:52:04;;;;;;;3.70;2.58;;;;;;;;;;5284092;28;20108;-83
2023/09/27 00:54:35;;;;;;;4.45;2.70;;;;;;;;;;5285033;28;20032;-83
2023/09/27 00:57:06;;;;;;;3.63;2.45;;;;;;;;;;5284867;28;20023;-83
2023/09/27 00:59:38;;;;;;;14.32;2.60;;;;;;;;;;5284135;28;20024;-83
2023/09/27 01:02:09;;;;;;;3.05;2.20;;;;;;;;;;5284802;28;20044;-83
2023/09/27 01:04:40;;;;;;;4.50;2.90;;;;;;;;;;5284270;28;20099;-83
2023/09/27 01:07:12;;;;;;;3.72;2.47;;;;;;;;;;5283934;28;20097;-83
2023/09/27 01:09:43;;;;;;;4.95;2.67;;;;;;;;;;5285452;28;20016;-83
2023/09/27 01:12:14;;;;;;;3.25;2.50;;;;;;;;;;5284513;28;20028;-83
2023/09/27 01:14:45;;;;;;;3.65;2.95;;;;;;;;;;5285608;28;20071;-82
2023/09/27 01:17:16;;;;;;;4.80;2.63;;;;;;;;;;5289576;28;20043;-82
2023/09/27 01:19:48;;;;;;;3.23;2.57;;;;;;;;;;5285228;28;20024;-83
2023/09/27 01:22:19;;;;;;;5.45;2.97;;;;;;;;;;5283788;28;20266;-81
2023/09/27 01:24:51;;;;;;;4.22;3.38;;;;;;;;;;5284355;28;20532;-82
2023/09/27 01:27:22;;;;;;;4.20;3.35;;;;;;;;;;5283922;28;20017;-82
2023/09/27 01:29:53;;;;;;;6.18;3.22;;;;;;;;;;5283853;28;20055;-82
2023/09/27 01:32:24;;;;;;;3.78;3.03;;;;;;;;;;5284075;28;20012;-83
2023/09/27 01:34:56;;;;;;;3.33;2.87;;;;;;;;;;5283289;28;20029;-83
2023/09/27 01:37:27;;;;;;;3.88;2.70;;;;;;;;;;5285038;28;20693;-82
2023/09/27 01:39:58;;;;;;;6.83;3.33;;;;;;;;;;5284970;28;20025;-82
2023/09/27 01:42:30;;;;;;;4.18;2.78;;;;;;;;;;5284721;28;20259;-83
2023/09/27 01:45:01;;;;;;;4.38;3.08;;;;;;;;;;5284934;28;20074;-83
2023/09/27 01:47:32;;;;;;;4.88;3.15;;;;;;;;;;5284853;28;20012;-83
2023/09/27 01:50:05;;;;;;;6.10;3.35;;;;;;;;;;5283664;28;20410;-82
2023/09/27 01:52:36;;;;;;;4.28;2.85;;;;;;;;;;5283831;28;20020;-82
2023/09/27 01:55:08;;;;;;;11.23;3.22;;;;;;;;;;5283294;28;20150;-83
2023/09/27 01:57:39;;;;;;;3.58;2.67;;;;;;;;;;5283503;28;20055;-83
2023/09/27 02:00:11;;;;;;;5.57;3.20;;;;;;;;;;5283792;28;20016;-83
2023/09/27 02:02:43;;;;;;;4.28;3.53;;;;;;;;;;5282670;28;20019;-83
2023/09/27 02:05:14;;;;;;;4.60;3.55;;;;;;;;;;5283184;28;20412;-83
2023/09/27 02:07:45;;;;;;;6.75;4.05;;;;;;;;;;5283049;28;20092;-84
2023/09/27 02:10:16;;;;;;;4.88;3.40;;;;;;;;;;5282801;28;20113;-83
2023/09/27 02:12:47;;;;;;;3.50;3.08;;;;;;;;;;5282845;28;20012;-83
2023/09/27 02:15:19;;;;;;;4.30;3.40;;;;;;;;;;5282664;28;20029;-83
2023/09/27 02:17:50;;;;;;;5.45;3.47;;;;;;;;;;5282352;28;20334;-83
2023/09/27 02:20:24;;;;;;;3.55;3.25;;;;;;;;;;5283243;28;20027;-83
2023/09/27 02:22:55;;;;;;;4.38;3.60;;;;;;;;;;5282799;28;20078;-83
2023/09/27 02:25:27;;;;;;;4.90;3.10;;;;;;;;;;5282592;28;20029;-83
2023/09/27 02:27:58;;;;;;;3.42;3.13;;;;;;;;;;5283212;28;20548;-83
2023/09/27 02:30:29;;;;;;;4.90;3.33;;;;;;;;;;5281845;28;20040;-83
2023/09/27 02:33:01;;;;;;;6.70;3.28;;;;;;;;;;5282712;28;20016;-83
2023/09/27 02:35:33;;;;;;;4.32;3.35;;;;;;;;;;5282869;28;20036;-83
2023/09/27 02:38:04;;;;;;;3.63;3.27;;;;;;;;;;5287403;28;20028;-81
2023/09/27 02:40:36;;;;;;;5.35;3.70;;;;;;;;;;5285084;28;20269;-82
2023/09/27 02:43:07;;;;;;;4.60;2.90;;;;;;;;;;5284281;28;20020;-82
2023/09/27 02:45:38;;;;;;;7.30;3.50;;;;;;;;;;5284047;28;20467;-82
2023/09/27 02:48:09;;;;;;;3.92;3.05;;;;;;;;;;5284284;28;20267;-82
2023/09/27 02:50:46;;;;;;;3.85;3.00;;;;;;;;;;5283799;28;20054;-82
2023/09/27 02:53:18;;;;;;;4.88;2.97;;;;;;;;;;5283268;28;20074;-82
2023/09/27 02:55:49;;;;;;;5.15;2.50;;;;;;;;;;5283102;28;20028;-82
2023/09/27 02:58:21;;;;;;;6.32;2.95;;;;;;;;;;5283869;28;20016;-82
2023/09/27 03:00:52;;;;;;;5.13;3.40;;;;;;;;;;5282273;28;20036;-82
2023/09/27 03:03:24;;;;;;;4.00;3.40;;;;;;;;;;5283399;28;20374;-82
2023/09/27 03:05:57;;;;;;;4.43;3.50;;;;;;;;;;5282283;28;20028;-82
2023/09/27 03:08:29;;;;;;;4.47;3.50;;;;;;;;;;5282649;28;20019;-82
2023/09/27 03:11:04;;;;;;;4.68;2.97;;;;;;;;;;5282743;28;20371;-82
2023/09/27 03:13:36;;;;;;;3.78;3.25;;;;;;;;;;5282485;28;20020;-82
2023/09/27 03:16:08;;;;;;;4.90;3.53;;;;;;;;;;5283067;28;20115;-82
2023/09/27 03:18:39;;;;;;;4.20;2.92;;;;;;;;;;5282774;28;20095;-82
2023/09/27 03:21:10;;;;;;;5.28;2.85;;;;;;;;;;5282393;28;20502;-82
2023/09/27 03:23:41;;;;;;;5.47;3.53;;;;;;;;;;5283738;28;20023;-83
2023/09/27 03:26:13;;;;;;;6.13;4.18;;;;;;;;;;5282747;28;20021;-83
2023/09/27 03:28:44;;;;;;;4.38;3.05;;;;;;;;;;5282179;28;20481;-83
2023/09/27 03:31:15;;;;;;;6.53;3.03;;;;;;;;;;5282182;28;20133;-83
2023/09/27 03:33:46;;;;;;;5.60;2.90;;;;;;;;;;5281665;28;20455;-83
2023/09/27 03:36:18;;;;;;;5.30;3.17;;;;;;;;;;5283176;28;20073;-83
2023/09/27 03:38:49;;;;;;;5.05;3.40;;;;;;;;;;5282099;28;20262;-83
2023/09/27 03:41:21;;;;;;;4.10;2.80;;;;;;;;;;5282168;28;20474;-83
2023/09/27 03:43:53;;;;;;;4.53;2.55;;;;;;;;;;5281735;28;20027;-83
2023/09/27 03:46:24;;;;;;;3.83;3.03;;;;;;;;;;5284328;28;20024;-82
2023/09/27 03:48:55;;;;;;;5.50;3.08;;;;;;;;;;5281182;28;20017;-82
2023/09/27 03:51:27;;;;;;;5.18;3.80;;;;;;;;;;5281955;28;20066;-82
2023/09/27 03:53:58;;;;;;;3.50;3.13;;;;;;;;;;5281958;28;20100;-83
2023/09/27 03:56:29;;;;;;;4.47;3.40;;;;;;;;;;5281808;28;20029;-83
2023/09/27 03:59:00;;;;;;;4.13;3.28;;;;;;;;;;5282484;28;20017;-83
2023/09/27 04:01:32;;;;;;;3.63;3.17;;;;;;;;;;5282317;28;20017;-83
2023/09/27 04:04:04;;;;;;;3.70;3.40;;;;;;;;;;5281192;28;20031;-83
2023/09/27 04:06:36;;;;;;;4.47;2.97;;;;;;;;;;5281622;28;20021;-83
2023/09/27 04:09:08;;;;;;;3.50;3.08;;;;;;;;;;5281246;28;20017;-83
2023/09/27 04:11:39;;;;;;;4.15;3.08;;;;;;;;;;5281800;28;20025;-83
2023/09/27 04:14:11;;;;;;;4.18;3.20;;;;;;;;;;5281612;28;20024;-83
2023/09/27 04:16:42;;;;;;;4.32;3.22;;;;;;;;;;5281207;28;21179;-83
2023/09/27 04:19:13;;;;;;;4.72;3.63;;;;;;;;;;5286030;28;20031;-83
2023/09/27 04:21:45;;;;;;;6.50;3.60;;;;;;;;;;5284231;28;20017;-84
2023/09/27 04:24:16;;;;;;;3.47;3.17;;;;;;;;;;5281263;28;20013;-83
2023/09/27 04:26:47;;;;;;;3.88;3.45;;;;;;;;;;5281659;28;20347;-83
2023/09/27 04:29:18;;;;;;;4.50;3.17;;;;;;;;;;5281709;28;20004;-83
2023/09/27 04:31:50;;;;;;;5.07;2.90;;;;;;;;;;5280194;28;20558;-83
2023/09/27 04:34:21;;;;;;;3.65;2.65;;;;;;;;;;5281974;28;20633;-83
2023/09/27 04:36:53;;;;;;;5.13;2.97;;;;;;;;;;5280994;28;20024;-83
2023/09/27 04:39:27;;;;;;;4.60;2.85;;;;;;;;;;5283763;28;20104;-83
2023/09/27 04:41:58;;;;;;;3.30;2.75;;;;;;;;;;5284983;28;20095;-83
2023/09/27 04:44:29;;;;;;;3.85;3.00;;;;;;;;;;5284401;28;20530;-83
2023/09/27 04:47:00;;;;;;;5.40;3.47;;;;;;;;;;5284974;28;20027;-83
2023/09/27 04:49:32;;;;;;;4.47;3.10;;;;;;;;;;5285007;28;20547;-83
2023/09/27 04:52:03;;;;;;;6.50;3.03;;;;;;;;;;5284116;28;20020;-83
2023/09/27 04:54:34;;;;;;;4.32;3.17;;;;;;;;;;5284765;28;20479;-83
2023/09/27 04:57:05;;;;;;;3.67;2.90;;;;;;;;;;5284812;28;20032;-83
2023/09/27 04:59:37;;;;;;;3.85;2.97;;;;;;;;;;5283720;28;20016;-83
2023/09/27 05:02:08;;;;;;;3.78;3.10;;;;;;;;;;5284868;28;20036;-83
2023/09/27 05:04:39;;;;;;;4.40;3.33;;;;;;;;;;5284621;28;20082;-83
2023/09/27 05:07:10;;;;;;;4.38;3.33;;;;;;;;;;5283720;28;20008;-83
2023/09/27 05:09:41;;;;;;;5.45;3.20;;;;;;;;;;5284687;28;20375;-83
2023/09/27 05:12:13;;;;;;;5.47;2.92;;;;;;;;;;5283661;28;20028;-83
2023/09/27 05:14:44;;;;;;;3.92;3.58;;;;;;;;;;5284301;28;20588;-84
2023/09/27 05:17:15;;;;;;;4.65;3.35;;;;;;;;;;5284298;28;20013;-84
2023/09/27 05:19:48;;;;;;;3.70;3.20;;;;;;;;;;5282996;28;20479;-84
2023/09/27 05:22:19;;;;;;;6.13;3.45;;;;;;;;;;5284395;28;20020;-84
2023/09/27 05:24:50;;;;;;;6.38;3.80;;;;;;;;;;5284028;28;20038;-83
2023/09/27 05:27:21;;;;;;;4.68;3.65;;;;;;;;;;5283603;28;20032;-83
2023/09/27 05:29:53;;;;;;;5.45;3.58;;;;;;;;;;5283368;28;20044;-83
2023/09/27 05:32:24;;;;;;;4.75;3.67;;;;;;;;;;5283671;28;20028;-83
2023/09/27 05:34:55;;;;;;;5.68;3.50;;;;;;;;;;5282714;28;20033;-83
2023/09/27 05:37:28;;;;;;;5.35;3.72;;;;;;;;;;5283538;28;20013;-84
2023/09/27 05:40:04;;;;;;;4.47;3.35;;;;;;;;;;5283562;28;20348;-84
2023/09/27 05:42:35;;;;;;;5.25;3.67;;;;;;;;;;5283037;28;20027;-83
2023/09/27 05:45:13;;;;;;;5.38;3.40;;;;;;;;;;5283681;28;20016;-84
2023/09/27 05:47:44;;;;;;;4.47;3.45;;;;;;;;;;5282784;28;20036;-84
2023/09/27 05:50:16;;;;;;;5.47;4.10;;;;;;;;;;5282431;28;20021;-83
2023/09/27 05:52:47;;;;;;;5.97;4.20;;;;;;;;;;5282950;28;20570;-84
2023/09/27 05:55:18;;;;;;;5.80;3.80;;;;;;;;;;5282644;28;20031;-84
2023/09/27 05:57:49;;;;;;;6.22;3.80;;;;;;;;;;5283189;28;20016;-83
2023/09/27 06:00:26;;;;;;;5.55;3.40;;;;;;;;;;5283611;28;20397;-83
2023/09/27 06:02:59;;;;;;;5.32;4.40;;;;;;;;;;5282572;28;20024;-83
2023/09/27 06:05:30;;;;;;;4.78;3.85;;;;;;;;;;5284057;28;20483;-82
2023/09/27 06:08:03;;;;;;;5.55;3.72;;;;;;;;;;5284456;28;20024;-82
2023/09/27 06:10:34;;;;;;;6.43;4.30;;;;;;;;;;5284485;28;20017;-82
2023/09/27 06:13:05;;;;;;;8.02;4.15;;;;;;;;;;5284454;28;20042;-82
2023/09/27 06:15:36;;;;;;;5.53;3.95;;;;;;;;;;5282220;28;20115;-83
2023/09/27 06:18:08;;;;;;;4.55;3.50;;;;;;;;;;5283165;28;20012;-83
2023/09/27 06:20:40;;;;;;;4.90;3.88;;;;;;;;;;5283274;28;20112;-83
2023/09/27 06:23:11;;;;;;;7.97;4.25;;;;;;;;;;5282425;28;20024;-84
2023/09/27 06:25:46;;;;;;;9.63;4.13;;;;;;;;;;5282828;28;20028;-83
2023/09/27 06:28:18;;;;;;;5.07;4.32;;;;;;;;;;5283257;28;20439;-83
2023/09/27 06:30:49;;;;;;;7.43;4.85;;;;;;;;;;5281765;28;20071;-83
2023/09/27 06:33:21;;;;;;;6.72;4.35;;;;;;;;;;5283325;28;20040;-83
2023/09/27 06:35:53;;;;;;;7.13;4.93;;;;;;;;;;5282770;28;20074;-82
2023/09/27 06:38:24;;;;;;;8.65;5.30;;;;;;;;;;5284712;28;20031;-83
2023/09/27 06:40:57;;;;;;;5.70;4.90;;;;;;;;;;5286241;28;20020;-82
2023/09/27 06:43:31;;;;;;;7.63;5.22;;;;;;;;;;5285564;28;20052;-83
2023/09/27 06:46:07;;;;;;;6.55;4.63;;;;;;;;;;5286530;28;20046;-82
2023/09/27 06:48:39;;;;;;;6.45;5.25;;;;;;;;;;5285173;28;20070;-82
2023/09/27 06:51:13;;;;;;;7.78;4.95;;;;;;;;;;5281476;28;20392;-83
2023/09/27 06:53:44;;;;;;;4.97;4.45;;;;;;;;;;5267046;28;20074;-82
2023/09/27 06:56:15;;;;;;;6.55;5.20;;;;;;;;;;5262567;28;20480;-80
2023/09/27 06:58:47;;;;;;;6.82;4.93;;;;;;;;;;5264859;28;20028;-81
2023/09/27 07:01:22;;;;;;;5.43;4.85;;;;;;;;;;5261972;28;20028;-83
2023/09/27 07:03:55;;;;;;;7.28;5.13;;;;;;;;;;5264633;28;20017;-82
2023/09/27 07:06:26;;;;;;;7.38;5.15;;;;;;;;;;5260880;28;20344;-82
2023/09/27 07:08:57;;;;;;;4.43;4.03;;;;;;;;;;5261751;28;20066;-81
2023/09/27 07:11:29;;;;;;;9.55;4.72;;;;;;;;;;5262021;28;20263;-80
2023/09/27 07:14:00;;;;;;;6.68;4.20;;;;;;;;;;5261056;28;20047;-80
2023/09/27 07:16:31;;;;;;;7.95;4.47;;;;;;;;;;5261245;28;20036;-81
2023/09/27 07:19:05;;;;;;;7.87;4.30;;;;;;;;;;5260915;28;20023;-81
2023/09/27 07:21:36;;;;;;;4.25;3.72;;;;;;;;;;5262876;28;20346;-83
2023/09/27 07:24:09;;;;;;;6.45;3.97;;;;;;;;;;5261860;28;20472;-81
2023/09/27 07:26:42;;;;;;;8.25;4.82;;;;;;;;;;5260266;28;20021;-81
2023/09/27 07:29:14;;;;;;;5.55;4.40;;;;;;;;;;5260977;28;20092;-84
2023/09/27 07:31:45;;;;;;;8.40;5.28;;;;;;;;;;5261742;28;20112;-82
2023/09/27 07:34:16;;;;;;;6.37;5.07;;;;;;;;;;5260830;28;20064;-84
2023/09/27 07:36:48;;;;;;;9.35;5.80;;;;;;;;;;5260672;28;20275;-84
2023/09/27 07:39:20;;;;;;;6.10;4.78;;;;;;;;;;5261067;28;20017;-83
2023/09/27 07:41:52;;;;;;;9.32;5.78;;;;;;;;;;5260045;28;20021;-83
2023/09/27 07:44:26;;;;;;;8.40;5.05;;;;;;;;;;5262247;28;20066;-83
2023/09/27 07:46:57;;;;;;;6.47;4.88;;;;;;;;;;5261092;28;20028;-84
2023/09/27 07:49:28;;;;;;;7.37;5.20;;;;;;;;;;5261463;28;20025;-84
2023/09/27 07:51:59;;;;;;;6.68;4.45;;;;;;;;;;5260860;28;20333;-83
2023/09/27 07:54:31;;;;;;;11.55;4.95;;;;;;;;;;5260328;28;20021;-83
2023/09/27 07:57:05;;;;;;;7.03;5.10;;;;;;;;;;5260603;28;20045;-83
2023/09/27 07:59:36;;;;;;;9.95;4.78;;;;;;;;;;5260550;28;20424;-82
2023/09/27 08:02:09;;;;;;;6.43;5.07;;;;;;;;;;5259832;28;20112;-82
2023/09/27 08:04:40;;;;;;;7.35;5.93;;;;;;;;;;5260637;28;20070;-82
2023/09/27 08:07:13;;;;;;;6.47;5.20;;;;;;;;;;5260249;28;20025;-82
2023/09/27 08:09:44;;;;;;;7.03;5.82;;;;;;;;;;5259290;28;20031;-81
2023/09/27 08:12:15;;;;;;;7.80;5.80;;;;;;;;;;5261307;28;20016;-81
2023/09/27 08:14:47;;;;;;;5.32;4.80;;;;;;;;;;5263242;28;20043;-81
2023/09/27 08:17:18;;;;;;;6.57;5.38;;;;;;;;;;5264167;28;20412;-80
2023/09/27 08:19:49;;;;;;;7.20;5.13;;;;;;;;;;5264790;28;20116;-78
2023/09/27 08:22:20;;;;;;;11.63;6.23;;;;;;;;;;5263559;28;20013;-79
2023/09/27 08:24:51;;;;;;;6.45;5.53;;;;;;;;;;5263710;28;20782;-80
2023/09/27 08:27:22;;;;;;;7.30;5.00;;;;;;;;;;5264387;28;20079;-80
2023/09/27 08:29:54;;;;;;;13.10;6.27;;;;;;;;;;5262981;28;20283;-81
2023/09/27 08:32:26;;;;;;;10.65;5.35;;;;;;;;;;5264269;28;20750;-81
2023/09/27 08:34:57;;;;;;;9.32;5.63;;;;;;;;;;5264010;28;20037;-80
2023/09/27 08:37:28;;;;;;;10.20;5.83;;;;;;;;;;5264937;28;20532;-80
2023/09/27 08:39:59;;;;;;;8.45;5.63;;;;;;;;;;5265020;28;20294;-74
2023/09/27 08:42:31;;;;;;;8.15;5.25;;;;;;;;;;5263828;28;20032;-78
2023/09/27 08:45:06;;;;;;;8.70;5.10;;;;;;;;;;5263459;28;20452;-80
2023/09/27 08:47:39;;;;;;;7.50;5.43;;;;;;;;;;5263673;28;20017;-79
2023/09/27 08:50:14;;;;;;;7.03;5.43;;;;;;;;;;5263208;28;20033;-79
2023/09/27 08:52:49;;;;;;;8.18;5.75;;;;;;;;;;5263492;28;20029;-79
2023/09/27 08:55:20;;;;;;;7.38;5.07;;;;;;;;;;5265429;28;20025;-79
2023/09/27 08:57:52;;;;;;;6.00;4.93;;;;;;;;;;5264102;28;20482;-77
2023/09/27 09:00:26;;;;;;;8.02;5.40;;;;;;;;;;5267826;28;20016;-81
2023/09/27 09:02:59;;;;;;;6.32;4.95;;;;;;;;;;5263705;28;20471;-80
2023/09/27 09:05:30;;;;;;;7.60;4.47;;;;;;;;;;5263049;28;20021;-80
2023/09/27 09:08:04;;;;;;;6.28;4.53;;;;;;;;;;5263364;28;20028;-79
2023/09/27 09:10:35;;;;;;;8.88;4.30;;;;;;;;;;5263007;28;20498;-78
2023/09/27 09:13:08;;;;;;;6.13;3.88;;;;;;;;;;5272692;28;20016;-77
2023/09/27 09:15:47;;;;;;;6.13;3.75;;;;;;;;;;5284195;28;20036;-78
2023/09/27 09:18:18;;;;;;;;;;;;;;;;;;5284738;28;20532;-81
2023/09/27 09:20:54;;;;;;;9.20;4.05;;;;;;;;;;5285085;28;20252;-82
2023/09/27 09:23:30;;;;;;;7.18;3.67;;;;;;;;;;5284973;28;20028;-81
2023/09/27 09:26:05;;;;;;;11.65;4.35;;;;;;;;;;5283767;28;20078;-81
2023/09/27 09:28:55;;;;;;;6.05;3.22;;;;;;;;;;5284844;28;20025;-81
2023/09/27 09:31:27;;;;;;;5.95;3.70;;;;;;;;;;5285042;28;20051;-82
2023/09/27 09:34:03;;;;;;;5.28;3.45;;;;;;;;;;5283559;28;20024;-82
2023/09/27 09:36:35;;;;;;;4.70;3.08;;;;;;;;;;5284071;28;20032;-78
2023/09/27 09:39:13;;;;;;;3.78;3.25;;;;;;;;;;5284054;28;20482;-78
2023/09/27 09:41:48;;;;;;;4.68;3.85;;;;;;;;;;5281731;28;20028;-79
2023/09/27 09:44:20;;;;;;;7.78;4.38;;;;;;;;;;5283949;28;20024;-79
2023/09/27 09:46:51;;;;;;;7.78;3.70;;;;;;;;;;5282365;28;20107;-79
2023/09/27 09:49:23;;;;;;;5.40;4.18;;;;;;;;;;5283888;28;20092;-77
2023/09/27 09:51:55;;;;;;;4.93;4.13;;;;;;;;;;5282585;28;20036;-78
2023/09/27 09:54:28;;;;;;;6.43;4.32;;;;;;;;;;5280400;28;20044;-79
2023/09/27 09:57:01;;;;;;;7.38;5.43;;;;;;;;;;5281255;28;20355;-78
2023/09/27 09:59:40;;;;;;;8.32;5.53;;;;;;;;;;5280862;28;20064;-79
2023/09/27 10:02:18;;;;;;;8.40;5.00;;;;;;;;;;5280162;28;20039;-78
2023/09/27 10:04:55;;;;;;;7.00;4.15;;;;;;;;;;5281026;28;20043;-79
2023/09/27 10:07:27;;;;;;;5.72;3.95;;;;;;;;;;5282585;28;20008;-79
2023/09/27 10:09:59;;;;;;;5.35;4.68;;;;;;;;;;5283533;28;20021;-79
2023/09/27 10:12:30;;;;;;;7.88;4.68;;;;;;;;;;5283437;28;20063;-79
2023/09/27 10:15:03;;;;;;;7.10;4.63;;;;;;;;;;5282803;28;20028;-79
2023/09/27 10:17:35;;;;;;;6.38;4.38;;;;;;;;;;5283210;28;20016;-79
2023/09/27 10:20:18;;;;;;;5.57;4.25;;;;;;;;;;5283374;28;20047;-79
2023/09/27 10:22:49;;;;;;;6.25;3.83;;;;;;;;;;5283443;28;20073;-78
2023/09/27 10:25:23;;;;;;;6.57;3.83;;;;;;;;;;5288198;28;20025;-79
2023/09/27 10:28:18;;;;;;;8.95;4.38;;;;;;;;;;5294818;28;20032;-78
2023/09/27 10:31:04;;;;;;;5.35;4.13;;;;;;;;;;5296961;28;20053;-79
2023/09/27 10:33:38;;;;;;;9.52;3.63;;;;;;;;;;5290271;28;20032;-78
2023/09/27 10:36:15;;;;;;;5.78;4.13;;;;;;;;;;5291080;28;20111;-78
2023/09/27 10:38:49;;;;;;;6.18;4.25;;;;;;;;;;5285298;28;20374;-78
2023/09/27 10:41:38;;;;;;;5.40;3.50;;;;;;;;;;5282845;28;20078;-78
2023/09/27 10:44:09;;;;;;;10.27;4.13;;;;;;;;;;5291859;28;20067;-78
2023/09/27 10:46:45;;;;;;;5.72;4.05;;;;;;;;;;5283558;28;20050;-77
2023/09/27 10:49:24;;;;;;;6.53;3.75;;;;;;;;;;5283728;28;20025;-77
2023/09/27 10:51:55;;;;;;;7.35;3.33;;;;;;;;;;5283805;28;20467;-77
2023/09/27 10:54:28;;;;;;;6.33;3.63;;;;;;;;;;5282375;28;20028;-78
2023/09/27 10:57:02;;;;;;;5.25;3.30;;;;;;;;;;5281564;28;20317;-78
2023/09/27 10:59:33;;;;;;;4.30;2.88;;;;;;;;;;5282581;28;20029;-77
2023/09/27 11:02:06;;;;;;;5.60;2.92;;;;;;;;;;5282892;28;20032;-78
2023/09/27 11:04:39;;;;;;;5.72;4.20;;;;;;;;;;5281599;28;20048;-77
2023/09/27 11:07:10;;;;;;;4.65;3.10;;;;;;;;;;5281907;28;20169;-77
2023/09/27 11:09:43;;;;;;;4.33;3.40;;;;;;;;;;5281823;28;20097;-78
2023/09/27 11:12:20;;;;;;;6.80;3.10;;;;;;;;;;5281807;28;20278;-77
2023/09/27 11:14:52;;;;;;;4.70;2.72;;;;;;;;;;5281219;28;20119;-78
2023/09/27 11:17:23;;;;;;;5.63;3.15;;;;;;;;;;5281539;28;20100;-76
2023/09/27 11:19:55;;;;;;;14.60;3.53;;;;;;;;;;5280536;28;20020;-78
2023/09/27 11:22:26;;;;;;;10.18;3.10;;;;;;;;;;5281391;28;20012;-78
2023/09/27 11:24:58;;;;;;;5.40;2.90;;;;;;;;;;5280047;28;20048;-78
2023/09/27 11:27:29;;;;;;;5.78;2.63;;;;;;;;;;5281117;28;20009;-78
2023/09/27 11:30:00;;;;;;;4.20;2.50;;;;;;;;;;5280826;28;20045;-79
2023/09/27 11:32:48;;;;;;;4.20;2.58;;;;;;;;;;5281164;28;20016;-79
2023/09/27 11:35:20;;;;;;;5.22;2.33;;;;;;;;;;5281569;28;20073;-79
2023/09/27 11:38:10;;;;;;;5.35;2.45;;;;;;;;;;5279409;28;20021;-79
2023/09/27 11:40:42;;;;;;;4.20;1.80;;;;;;;;;;5278661;28;20024;-79
2023/09/27 11:43:13;;;;;;;10.02;2.50;;;;;;;;;;5279458;28;20096;-79
2023/09/27 11:45:49;;;;;;;4.43;1.70;;;;;;;;;;5279353;28;20104;-80
2023/09/27 11:48:30;;;;;;;4.28;2.03;;;;;;;;;;5282290;28;20047;-80
2023/09/27 11:51:02;;;;;;;6.00;2.53;;;;;;;;;;5284101;28;20017;-79
2023/09/27 11:53:33;;;;;;;3.60;1.80;;;;;;;;;;5283150;28;20099;-80
2023/09/27 11:56:05;;;;;;;3.87;1.97;;;;;;;;;;5284426;28;20115;-79
2023/09/27 11:58:36;;;;;;;5.47;1.67;;;;;;;;;;5283804;28;20262;-79
2023/09/27 12:01:07;;;;;;;17.58;4.78;;;;;;;;;;5282768;28;20489;-79
2023/09/27 12:03:39;;;;;;;3.90;1.90;;;;;;;;;;5283960;28;20017;-80
2023/09/27 12:06:10;;;;;;;4.53;1.40;;;;;;;;;;5283282;28;20115;-79
2023/09/27 12:08:41;;;;;;;2.85;1.60;;;;;;;;;;5282497;28;20722;-80
2023/09/27 12:11:12;;;;;;;3.07;1.93;;;;;;;;;;5286519;28;20463;-80
2023/09/27 12:13:44;;;;;;;6.22;2.05;;;;;;;;;;5285609;28;20258;-79
2023/09/27 12:16:17;;;;;;;7.63;2.90;;;;;;;;;;5284590;28;20028;-79
2023/09/27 12:18:48;;;;;;;4.80;2.33;;;;;;;;;;5285075;28;20263;-79
2023/09/27 12:21:21;;;;;;;4.03;1.85;;;;;;;;;;5284968;28;20020;-79
2023/09/27 12:23:52;;;;;;;5.43;1.23;;;;;;;;;;5284989;28;20342;-79
2023/09/27 12:26:23;;;;;;;9.83;1.90;;;;;;;;;;5285178;28;20021;-79
2023/09/27 12:28:54;;;;;;;3.27;1.43;;;;;;;;;;5284159;28;20771;-79
2023/09/27 12:31:26;;;;;;;4.15;1.85;;;;;;;;;;5284860;28;20394;-78
2023/09/27 12:33:57;;;;;;;2.90;1.93;;;;;;;;;;5285185;28;20036;-78
2023/09/27 12:36:29;;;;;;;7.13;2.30;;;;;;;;;;5284082;28;20312;-78
2023/09/27 12:39:00;;;;;;;3.55;1.98;;;;;;;;;;5284854;28;20524;-78
2023/09/27 12:41:32;;;;;;;4.50;1.90;;;;;;;;;;5284882;28;20471;-79
2023/09/27 12:44:03;;;;;;;2.80;1.75;;;;;;;;;;5284162;28;20346;-79
2023/09/27 12:46:34;;;;;;;5.65;1.67;;;;;;;;;;5285047;28;20036;-79
2023/09/27 12:49:06;;;;;;;3.60;2.30;;;;;;;;;;5284866;28;20012;-79
2023/09/27 12:51:38;;;;;;;5.45;1.48;;;;;;;;;;5283892;28;20309;-79
2023/09/27 12:54:10;;;;;;;3.40;1.75;;;;;;;;;;5284757;28;20013;-79
2023/09/27 12:56:42;;;;;;;2.38;1.65;;;;;;;;;;5283979;28;20033;-76
2023/09/27 12:59:13;;;;;;;3.00;1.95;;;;;;;;;;5283982;28;20462;-76
2023/09/27 13:01:45;;;;;;;5.77;1.60;;;;;;;;;;5284323;28;20036;-77
2023/09/27 13:04:16;;;;;;;4.82;1.88;;;;;;;;;;5283972;28;20321;-77
2023/09/27 13:06:48;;;;;;;3.47;1.88;;;;;;;;;;5284194;28;20066;-77
2023/09/27 13:09:20;;;;;;;6.07;1.73;;;;;;;;;;5284842;28;20016;-77
2023/09/27 13:11:52;;;;;;;5.07;1.58;;;;;;;;;;5283236;28;20086;-77
2023/09/27 13:14:23;;;;;;;2.65;1.20;;;;;;;;;;5284512;28;20012;-77
2023/09/27 13:16:54;;;;;;;4.20;1.52;;;;;;;;;;5283858;28;20427;-77
2023/09/27 13:19:25;;;;;;;4.07;1.20;;;;;;;;;;5283482;28;20455;-78
2023/09/27 13:21:56;;;;;;;2.03;0.97;;;;;;;;;;5284096;28;20375;-76
2023/09/27 13:24:27;;;;;;;3.50;1.40;;;;;;;;;;5283377;28;20271;-77
2023/09/27 13:26:59;;;;;;;2.72;1.13;;;;;;;;;;5282530;28;20278;-77
2023/09/27 13:29:30;;;;;;;3.95;1.25;;;;;;;;;;5283116;28;20035;-75
2023/09/27 13:32:01;;;;;;;2.90;1.03;;;;;;;;;;5282842;28;20473;-76
2023/09/27 13:34:33;;;;;;;6.78;1.02;;;;;;;;;;5283757;28;20353;-76
2023/09/27 13:37:05;;;;;;;4.57;1.23;;;;;;;;;;5283564;28;20258;-76
2023/09/27 13:39:36;;;;;;;3.28;0.90;;;;;;;;;;5282875;28;20025;-77
2023/09/27 13:42:08;;;;;;;2.17;0.70;;;;;;;;;;5283900;28;20024;-77
2023/09/27 13:44:39;;;;;;;5.65;0.90;;;;;;;;;;5278997;28;20021;-75
2023/09/27 13:47:11;;;;;;;3.80;1.15;;;;;;;;;;5281767;28;20074;-76
2023/09/27 13:49:42;;;;;;;3.60;0.80;;;;;;;;;;5282277;28;20344;-76
2023/09/27 13:52:13;;;;;;;2.87;0.77;;;;;;;;;;5282837;28;20027;-77
2023/09/27 13:54:44;;;;;;;1.75;0.88;;;;;;;;;;5282342;28;20547;-76
2023/09/27 13:57:16;;;;;;;2.33;0.90;;;;;;;;;;5283628;28;20027;-77
2023/09/27 13:59:47;;;;;;;5.40;0.90;;;;;;;;;;5280757;28;20298;-76
2023/09/27 14:02:18;;;;;;;3.00;0.90;;;;;;;;;;5281991;28;20764;-76
2023/09/27 14:04:49;;;;;;;3.90;0.63;;;;;;;;;;5282808;28;20024;-76
2023/09/27 14:07:21;;;;;;;2.53;0.90;;;;;;;;;;5282710;28;20756;-76
2023/09/27 14:09:52;;;;;;;2.40;0.88;;;;;;;;;;5282653;28;20052;-76
2023/09/27 14:12:23;;;;;;;2.10;0.97;;;;;;;;;;5282284;28;20533;-76
2023/09/27 14:14:55;;;;;;;2.50;0.90;;;;;;;;;;5282017;28;20286;-76
2023/09/27 14:17:27;;;;;;;1.90;0.80;;;;;;;;;;5283294;28;20020;-76
2023/09/27 14:19:58;;;;;;;2.35;0.73;;;;;;;;;;5282937;28;20017;-75
2023/09/27 14:22:30;;;;;;;2.58;0.80;;;;;;;;;;5282136;28;20023;-76
2023/09/27 14:25:01;;;;;;;2.00;0.80;;;;;;;;;;5282771;28;20471;-76
2023/09/27 14:27:32;;;;;;;3.33;0.90;;;;;;;;;;5282477;28;20378;-76
2023/09/27 14:30:04;;;;;;;2.70;0.90;;;;;;;;;;5281508;28;20387;-76
2023/09/27 14:32:36;;;;;;;4.88;1.00;;;;;;;;;;5282501;28;20055;-76
2023/09/27 14:35:07;;;;;;;2.95;1.02;;;;;;;;;;5281549;28;20059;-75
2023/09/27 14:37:39;;;;;;;2.25;0.90;;;;;;;;;;5282326;28;20543;-76
2023/09/27 14:40:11;;;;;;;2.42;0.80;;;;;;;;;;5282102;28;20017;-76
2023/09/27 14:42:42;;;;;;;4.82;1.40;;;;;;;;;;5281779;28;20477;-77
2023/09/27 14:45:13;;;;;;;2.73;0.80;;;;;;;;;;5282165;28;20024;-76
2023/09/27 14:47:48;;;;;;;5.10;0.95;;;;;;;;;;5282043;28;20747;-75
2023/09/27 14:50:20;;;;;;;2.53;1.00;;;;;;;;;;5281285;28;20027;-77
2023/09/27 14:52:52;;;;;;;5.68;0.95;;;;;;;;;;5281986;28;20016;-75
2023/09/27 14:55:24;;;;;;;3.97;0.98;;;;;;;;;;5282175;28;20032;-75
2023/09/27 14:57:56;;;;;;;1.77;0.80;;;;;;;;;;5281357;28;20021;-75
2023/09/27 15:00:29;;;;;;;4.20;0.90;;;;;;;;;;5282124;28;20502;-75
2023/09/27 15:03:00;;;;;;;4.38;0.90;;;;;;;;;;5281253;28;20082;-75
2023/09/27 15:05:31;;;;;;;5.40;1.38;;;;;;;;;;5282401;28;20471;-76
2023/09/27 15:08:03;;;;;;;3.33;0.87;;;;;;;;;;5282123;28;20024;-75
2023/09/27 15:10:34;;;;;;;2.78;1.23;;;;;;;;;;5281339;28;20266;-76
2023/09/27 15:13:06;;;;;;;2.53;0.93;;;;;;;;;;5282002;28;20024;-76